Time;durP1;ratioP1;P1;durP2;ratioP2;P2;SDS_P1;SDS_P2;PMS_P1;PMS_P2;Temp;Humidity;BMP_temperature;BMP_pressure;BME280_temperature;BME280_humidity;BME280_pressure;Samples;Min_cycle;Max_cycle;Signal;HPM_P1;HPM_P2
2021/06/06 00:01:54;;;;;;;25.30;21.67;;;;;;;;;;5102096;28;20178;-86
2021/06/06 00:04:22;;;;;;;23.33;19.23;;;;;;;;;;5103261;28;20197;-86
2021/06/06 00:06:48;;;;;;;22.87;18.70;;;;;;;;;;5104022;28;20204;-88
2021/06/06 00:09:15;;;;;;;20.53;18.33;;;;;;;;;;5103028;28;20167;-85
2021/06/06 00:11:44;;;;;;;21.07;18.87;;;;;;;;;;5101065;28;20234;-85
2021/06/06 00:14:12;;;;;;;21.50;18.53;;;;;;;;;;5103671;28;20249;-85
2021/06/06 00:16:41;;;;;;;22.60;18.73;;;;;;;;;;5098174;28;20209;-86
2021/06/06 00:19:07;;;;;;;20.83;18.53;;;;;;;;;;5094948;28;20293;-85
2021/06/06 00:21:33;;;;;;;21.97;18.90;;;;;;;;;;5094775;28;20635;-86
2021/06/06 00:23:58;;;;;;;20.90;18.80;;;;;;;;;;5094776;28;20234;-86
2021/06/06 00:26:24;;;;;;;21.67;19.37;;;;;;;;;;5094394;28;20523;-86
2021/06/06 00:28:49;;;;;;;21.63;19.30;;;;;;;;;;5094814;28;20167;-84
2021/06/06 00:31:15;;;;;;;26.23;22.07;;;;;;;;;;5094309;28;20177;-84
2021/06/06 00:33:40;;;;;;;25.37;22.40;;;;;;;;;;5094407;28;20276;-84
2021/06/06 00:36:07;;;;;;;24.40;21.90;;;;;;;;;;5094747;28;20177;-85
2021/06/06 00:38:32;;;;;;;26.30;21.67;;;;;;;;;;5094963;28;20171;-86
2021/06/06 00:40:58;;;;;;;25.23;22.57;;;;;;;;;;5094063;28;20181;-86
2021/06/06 00:43:25;;;;;;;22.70;20.00;;;;;;;;;;5094353;28;20523;-85
2021/06/06 00:45:50;;;;;;;22.93;20.53;;;;;;;;;;5094681;28;20178;-86
2021/06/06 00:48:16;;;;;;;24.30;21.10;;;;;;;;;;5094455;28;20673;-88
2021/06/06 00:50:42;;;;;;;24.30;20.63;;;;;;;;;;5094158;28;20625;-86
2021/06/06 00:53:09;;;;;;;23.87;21.17;;;;;;;;;;5094581;28;20159;-87
2021/06/06 00:55:36;;;;;;;25.57;22.53;;;;;;;;;;5094566;28;20174;-86
2021/06/06 00:58:04;;;;;;;25.93;23.13;;;;;;;;;;5094297;28;20726;-86
2021/06/06 01:00:39;;;;;;;26.47;23.80;;;;;;;;;;5094057;28;20632;-85
2021/06/06 01:03:04;;;;;;;25.77;22.97;;;;;;;;;;5094249;28;20170;-84
2021/06/06 01:05:53;;;;;;;26.60;23.63;;;;;;;;;;5093661;28;20204;-85
2021/06/06 01:08:20;;;;;;;25.17;22.23;;;;;;;;;;5090662;28;20186;-86
2021/06/06 01:10:46;;;;;;;31.70;23.10;;;;;;;;;;5093727;28;20170;-85
2021/06/06 01:13:21;;;;;;;25.23;22.53;;;;;;;;;;5094200;28;20207;-85
2021/06/06 01:15:48;;;;;;;27.73;24.10;;;;;;;;;;5094080;28;20170;-86
2021/06/06 01:18:23;;;;;;;27.80;24.77;;;;;;;;;;5094006;28;20171;-86
2021/06/06 01:20:57;;;;;;;26.90;24.00;;;;;;;;;;5093910;28;20177;-86
2021/06/06 01:23:25;;;;;;;27.10;24.27;;;;;;;;;;5093699;28;20196;-85
2021/06/06 01:25:53;;;;;;;26.93;23.40;;;;;;;;;;5093672;28;20177;-85
2021/06/06 01:28:20;;;;;;;27.37;24.53;;;;;;;;;;5093508;28;20372;-86
2021/06/06 01:30:54;;;;;;;28.83;25.73;;;;;;;;;;5093474;28;20170;-85
2021/06/06 01:33:23;;;;;;;28.60;25.60;;;;;;;;;;5093434;28;20163;-86
2021/06/06 01:35:51;;;;;;;27.47;24.77;;;;;;;;;;5093401;28;20225;-86
2021/06/06 01:38:22;;;;;;;28.13;25.13;;;;;;;;;;5093103;28;20192;-86
2021/06/06 01:40:49;;;;;;;28.27;25.27;;;;;;;;;;5093235;28;20158;-87
2021/06/06 01:43:20;;;;;;;28.87;25.90;;;;;;;;;;5093236;28;20260;-86
2021/06/06 01:45:54;;;;;;;28.67;25.63;;;;;;;;;;5092986;28;20189;-86
2021/06/06 01:48:19;;;;;;;29.07;26.00;;;;;;;;;;5093376;28;20612;-86
2021/06/06 01:50:49;;;;;;;29.07;26.07;;;;;;;;;;5092695;28;20237;-85
2021/06/06 01:53:16;;;;;;;28.43;25.43;;;;;;;;;;5092809;28;20174;-85
2021/06/06 01:55:43;;;;;;;28.50;25.50;;;;;;;;;;5093278;28;20185;-86
2021/06/06 01:58:12;;;;;;;29.07;26.07;;;;;;;;;;5093498;28;20175;-86
2021/06/06 02:00:57;;;;;;;28.43;25.43;;;;;;;;;;5093083;28;20215;-86
2021/06/06 02:03:23;;;;;;;30.33;26.90;;;;;;;;;;5092642;28;20192;-88
2021/06/06 02:05:50;;;;;;;28.73;25.73;;;;;;;;;;5093126;28;20178;-87
2021/06/06 02:08:16;;;;;;;28.70;25.60;;;;;;;;;;5092822;28;20738;-86
2021/06/06 02:10:50;;;;;;;27.83;24.83;;;;;;;;;;5093339;28;20177;-86
2021/06/06 02:13:21;;;;;;;28.63;25.73;;;;;;;;;;5093163;28;20167;-85
2021/06/06 02:15:50;;;;;;;27.93;24.53;;;;;;;;;;5093243;28;20171;-85
2021/06/06 02:18:15;;;;;;;27.63;24.77;;;;;;;;;;5092786;28;20593;-85
2021/06/06 02:20:42;;;;;;;27.93;25.00;;;;;;;;;;5092898;28;20194;-86
2021/06/06 02:23:08;;;;;;;27.27;24.43;;;;;;;;;;5092997;28;20171;-86
2021/06/06 02:25:35;;;;;;;30.33;27.00;;;;;;;;;;5096494;28;20618;-86
2021/06/06 02:28:16;;;;;;;34.60;28.50;;;;;;;;;;5096765;28;20231;-86
2021/06/06 02:30:50;;;;;;;37.50;30.43;;;;;;;;;;5097303;28;20624;-85
2021/06/06 02:33:23;;;;;;;37.50;30.63;;;;;;;;;;5096938;28;20159;-85
2021/06/06 02:35:54;;;;;;;34.17;27.90;;;;;;;;;;5097282;28;20227;-84
2021/06/06 02:38:40;;;;;;;33.20;28.63;;;;;;;;;;5096607;28;20216;-85
2021/06/06 02:41:11;;;;;;;36.20;28.77;;;;;;;;;;5096208;28;20232;-85
2021/06/06 02:43:39;;;;;;;32.13;27.10;;;;;;;;;;5096655;28;20180;-85
2021/06/06 02:46:06;;;;;;;29.57;26.47;;;;;;;;;;5096639;28;20249;-85
2021/06/06 02:48:46;;;;;;;28.10;23.97;;;;;;;;;;5096797;28;20194;-85
2021/06/06 02:51:13;;;;;;;27.67;24.33;;;;;;;;;;5096448;28;20279;-85
2021/06/06 02:53:57;;;;;;;28.53;25.50;;;;;;;;;;5096473;28;20252;-85
2021/06/06 02:56:26;;;;;;;27.13;24.27;;;;;;;;;;5096316;28;20178;-84
2021/06/06 02:58:56;;;;;;;27.30;23.80;;;;;;;;;;5096194;28;20166;-84
2021/06/06 03:01:31;;;;;;;26.37;23.77;;;;;;;;;;5096404;28;20174;-84
2021/06/06 03:04:01;;;;;;;26.00;23.50;;;;;;;;;;5096604;28;20190;-84
2021/06/06 03:06:32;;;;;;;26.83;24.03;;;;;;;;;;5096314;28;20181;-84
2021/06/06 03:08:57;;;;;;;25.63;23.13;;;;;;;;;;5096649;28;20163;-85
2021/06/06 03:11:24;;;;;;;24.53;22.03;;;;;;;;;;5096124;28;20192;-85
2021/06/06 03:13:51;;;;;;;24.33;22.00;;;;;;;;;;5096412;28;20631;-87
2021/06/06 03:16:18;;;;;;;25.63;22.97;;;;;;;;;;5095312;28;20174;-86
2021/06/06 03:18:46;;;;;;;24.10;21.40;;;;;;;;;;5095827;28;20166;-86
2021/06/06 03:21:19;;;;;;;23.33;21.13;;;;;;;;;;5096339;28;20246;-87
2021/06/06 03:23:48;;;;;;;23.70;21.27;;;;;;;;;;5095990;28;20284;-86
2021/06/06 03:26:14;;;;;;;22.47;20.10;;;;;;;;;;5095660;28;20633;-86
2021/06/06 03:28:40;;;;;;;23.13;21.03;;;;;;;;;;5095949;28;20177;-85
2021/06/06 03:31:15;;;;;;;21.70;19.67;;;;;;;;;;5095804;28;20170;-84
2021/06/06 03:33:40;;;;;;;22.40;20.33;;;;;;;;;;5095626;28;20168;-85
2021/06/06 03:36:05;;;;;;;22.37;20.30;;;;;;;;;;5094436;28;20257;-85
2021/06/06 03:38:31;;;;;;;23.07;20.97;;;;;;;;;;5095601;28;20166;-84
2021/06/06 03:40:56;;;;;;;21.97;19.97;;;;;;;;;;5095559;28;20224;-85
2021/06/06 03:43:21;;;;;;;23.07;20.77;;;;;;;;;;5077681;28;20178;-85
2021/06/06 03:45:47;;;;;;;23.67;21.43;;;;;;;;;;5095414;28;20202;-85
2021/06/06 03:48:12;;;;;;;24.00;21.67;;;;;;;;;;5095273;28;20179;-86
2021/06/06 03:50:39;;;;;;;24.03;21.63;;;;;;;;;;5094948;28;20230;-86
2021/06/06 03:53:04;;;;;;;22.73;20.57;;;;;;;;;;5095152;28;20178;-88
2021/06/06 03:55:30;;;;;;;22.57;20.27;;;;;;;;;;5095393;28;20166;-87
2021/06/06 03:57:55;;;;;;;22.27;20.07;;;;;;;;;;5095427;28;20523;-87
2021/06/06 04:00:30;;;;;;;20.70;18.80;;;;;;;;;;5095318;28;20224;-87
2021/06/06 04:02:55;;;;;;;20.13;18.13;;;;;;;;;;5095065;28;20186;-87
2021/06/06 04:05:20;;;;;;;19.03;17.33;;;;;;;;;;5095241;28;20229;-86
2021/06/06 04:07:46;;;;;;;19.07;17.37;;;;;;;;;;5094945;28;20255;-86
2021/06/06 04:10:12;;;;;;;17.40;15.90;;;;;;;;;;5095362;28;20179;-87
2021/06/06 04:12:37;;;;;;;15.77;14.38;;;;;;;;;;5094932;28;20181;-87
2021/06/06 04:15:03;;;;;;;15.27;14.00;;;;;;;;;;5094879;28;20170;-85
2021/06/06 04:17:29;;;;;;;13.20;12.20;;;;;;;;;;5094618;28;20266;-85
2021/06/06 04:19:55;;;;;;;12.90;11.80;;;;;;;;;;5095234;28;20206;-86
2021/06/06 04:22:20;;;;;;;12.85;11.75;;;;;;;;;;5095173;28;20171;-86
2021/06/06 04:24:46;;;;;;;11.82;10.93;;;;;;;;;;5094801;28;20212;-85
2021/06/06 04:27:11;;;;;;;11.73;10.75;;;;;;;;;;5094689;28;20170;-85
2021/06/06 04:29:37;;;;;;;10.43;9.45;;;;;;;;;;5094653;28;20166;-87
2021/06/06 04:32:04;;;;;;;10.38;9.48;;;;;;;;;;5094782;28;20166;-88
2021/06/06 04:34:30;;;;;;;10.10;9.30;;;;;;;;;;5094719;28;20624;-87
2021/06/06 04:36:55;;;;;;;9.50;8.80;;;;;;;;;;5094982;28;20176;-88
2021/06/06 04:39:20;;;;;;;9.00;8.40;;;;;;;;;;5094636;28;20171;-87
2021/06/06 04:41:45;;;;;;;9.98;9.07;;;;;;;;;;5094640;28;21189;-88
2021/06/06 04:44:11;;;;;;;9.27;8.57;;;;;;;;;;5094034;28;20202;-88
2021/06/06 04:46:36;;;;;;;8.90;8.30;;;;;;;;;;5094169;28;20170;-88
2021/06/06 04:49:01;;;;;;;9.00;8.40;;;;;;;;;;5094107;28;20506;-87
2021/06/06 04:51:27;;;;;;;9.18;8.40;;;;;;;;;;5094361;28;20222;-87
2021/06/06 04:53:53;;;;;;;9.27;8.57;;;;;;;;;;5094069;28;20175;-87
2021/06/06 04:56:19;;;;;;;9.80;9.00;;;;;;;;;;5094643;28;20694;-87
2021/06/06 04:58:44;;;;;;;8.95;8.07;;;;;;;;;;5093941;28;20525;-88
2021/06/06 05:01:10;;;;;;;8.95;8.35;;;;;;;;;;5094067;28;20167;-88
2021/06/06 05:03:35;;;;;;;9.77;9.00;;;;;;;;;;5094039;28;20517;-88
2021/06/06 05:06:01;;;;;;;9.52;8.82;;;;;;;;;;5094335;28;20243;-88
2021/06/06 05:08:26;;;;;;;9.73;9.00;;;;;;;;;;5094262;28;20162;-88
2021/06/06 05:10:52;;;;;;;9.32;8.73;;;;;;;;;;5093918;28;20610;-86
2021/06/06 05:13:17;;;;;;;8.18;7.68;;;;;;;;;;5094055;28;20299;-87
2021/06/06 05:15:43;;;;;;;9.00;8.25;;;;;;;;;;5093881;28;20205;-88
2021/06/06 05:18:09;;;;;;;8.98;8.10;;;;;;;;;;5093736;28;20178;-87
2021/06/06 05:20:39;;;;;;;8.38;7.80;;;;;;;;;;5093417;28;20616;-88
2021/06/06 05:23:05;;;;;;;8.00;7.47;;;;;;;;;;5093895;28;20217;-89
2021/06/06 05:25:31;;;;;;;8.70;8.10;;;;;;;;;;5093717;28;20647;-87
2021/06/06 05:27:57;;;;;;;8.52;7.82;;;;;;;;;;5093756;28;20166;-88
2021/06/06 05:30:24;;;;;;;7.75;7.18;;;;;;;;;;5093619;28;20178;-87
2021/06/06 05:32:50;;;;;;;8.30;7.70;;;;;;;;;;5093266;28;20170;-88
2021/06/06 05:35:16;;;;;;;8.52;7.68;;;;;;;;;;5093556;28;20178;-89
2021/06/06 05:37:42;;;;;;;7.45;6.95;;;;;;;;;;5093897;28;20519;-89
2021/06/06 05:40:07;;;;;;;7.88;7.18;;;;;;;;;;5093624;28;20172;-89
2021/06/06 05:42:33;;;;;;;7.82;7.13;;;;;;;;;;5093617;28;20166;-89
2021/06/06 05:44:58;;;;;;;8.13;7.32;;;;;;;;;;5093480;28;20197;-90
2021/06/06 05:47:23;;;;;;;8.15;7.50;;;;;;;;;;5093352;28;20166;-91
2021/06/06 05:49:49;;;;;;;7.60;7.10;;;;;;;;;;5093726;28;20194;-92
2021/06/06 05:52:14;;;;;;;7.88;7.28;;;;;;;;;;5092957;28;20268;-92
2021/06/06 05:54:39;;;;;;;7.78;7.15;;;;;;;;;;5093630;28;20646;-93
2021/06/06 05:57:05;;;;;;;7.47;6.93;;;;;;;;;;5093204;28;20177;-90
2021/06/06 05:59:30;;;;;;;7.72;7.10;;;;;;;;;;5092706;28;20161;-91
2021/06/06 06:01:55;;;;;;;7.72;7.13;;;;;;;;;;5093274;28;20170;-91
2021/06/06 06:04:21;;;;;;;7.47;6.88;;;;;;;;;;5093460;28;20236;-91
2021/06/06 06:06:46;;;;;;;7.70;7.15;;;;;;;;;;5094942;28;20174;-91
2021/06/06 06:09:11;;;;;;;7.90;7.18;;;;;;;;;;5094386;28;20200;-91
2021/06/06 06:11:36;;;;;;;7.40;6.90;;;;;;;;;;5096217;28;20177;-91
2021/06/06 06:14:02;;;;;;;7.75;7.25;;;;;;;;;;5104964;28;20182;-91
2021/06/06 06:16:29;;;;;;;7.35;6.85;;;;;;;;;;5103193;28;20162;-91
2021/06/06 06:18:54;;;;;;;7.78;7.03;;;;;;;;;;5105348;28;20162;-90
2021/06/06 06:21:20;;;;;;;7.20;6.60;;;;;;;;;;5105062;28;20181;-89
2021/06/06 06:23:46;;;;;;;6.85;6.35;;;;;;;;;;5106272;28;20165;-88
2021/06/06 06:26:11;;;;;;;6.85;6.07;;;;;;;;;;5094942;28;20176;-88
2021/06/06 06:28:37;;;;;;;6.55;6.05;;;;;;;;;;5092865;28;20173;-88
2021/06/06 06:31:03;;;;;;;7.25;6.75;;;;;;;;;;5093089;28;20158;-89
2021/06/06 06:33:28;;;;;;;6.68;6.28;;;;;;;;;;5092699;28;20662;-88
2021/06/06 06:35:53;;;;;;;6.50;6.10;;;;;;;;;;5092712;28;20299;-88
2021/06/06 06:38:19;;;;;;;6.47;5.90;;;;;;;;;;5092765;28;20169;-88
2021/06/06 06:40:44;;;;;;;6.38;5.88;;;;;;;;;;5092639;28;20162;-89
2021/06/06 06:43:10;;;;;;;6.10;5.50;;;;;;;;;;5092652;28;20170;-88
2021/06/06 06:45:38;;;;;;;5.55;5.15;;;;;;;;;;5092674;28;20206;-88
2021/06/06 06:48:05;;;;;;;5.68;5.28;;;;;;;;;;5092652;28;20177;-89
2021/06/06 06:50:31;;;;;;;6.07;5.10;;;;;;;;;;5092669;28;20232;-89
2021/06/06 06:52:57;;;;;;;5.88;5.47;;;;;;;;;;5092260;28;20583;-89
2021/06/06 06:55:22;;;;;;;6.03;5.53;;;;;;;;;;5092635;28;20639;-91
2021/06/06 06:57:48;;;;;;;7.32;5.57;;;;;;;;;;5092721;28;20170;-92
2021/06/06 07:00:20;;;;;;;5.82;5.40;;;;;;;;;;5092805;28;20197;-90
2021/06/06 07:02:45;;;;;;;5.95;5.43;;;;;;;;;;5092687;28;20150;-90
2021/06/06 07:05:11;;;;;;;6.03;5.60;;;;;;;;;;5092406;28;20193;-87
2021/06/06 07:07:36;;;;;;;5.80;5.40;;;;;;;;;;5092754;28;20170;-88
2021/06/06 07:10:03;;;;;;;5.70;5.25;;;;;;;;;;5092985;28;20518;-88
2021/06/06 07:12:28;;;;;;;6.18;5.65;;;;;;;;;;5096413;28;21231;-88
2021/06/06 07:14:54;;;;;;;5.95;5.53;;;;;;;;;;5095436;28;20281;-88
2021/06/06 07:17:19;;;;;;;5.82;5.43;;;;;;;;;;5095876;28;20219;-88
2021/06/06 07:19:44;;;;;;;6.13;5.63;;;;;;;;;;5093460;28;20563;-88
2021/06/06 07:22:10;;;;;;;7.07;5.82;;;;;;;;;;5095554;28;20174;-87
2021/06/06 07:24:35;;;;;;;6.25;5.80;;;;;;;;;;5095876;28;20627;-88
2021/06/06 07:27:01;;;;;;;5.68;5.18;;;;;;;;;;5094993;28;20174;-88
2021/06/06 07:29:28;;;;;;;6.43;5.93;;;;;;;;;;5095710;28;20161;-88
2021/06/06 07:31:55;;;;;;;6.10;5.60;;;;;;;;;;5095739;28;20608;-88
2021/06/06 07:34:21;;;;;;;6.00;5.60;;;;;;;;;;5094380;28;20258;-88
2021/06/06 07:36:47;;;;;;;5.85;5.45;;;;;;;;;;5095886;28;20631;-87
2021/06/06 07:39:13;;;;;;;5.90;5.40;;;;;;;;;;5095166;28;20174;-87
2021/06/06 07:41:38;;;;;;;7.97;5.50;;;;;;;;;;5095487;28;20189;-87
2021/06/06 07:44:04;;;;;;;6.32;5.57;;;;;;;;;;5095546;28;20232;-88
2021/06/06 07:46:29;;;;;;;5.43;5.03;;;;;;;;;;5096721;28;20564;-87
2021/06/06 07:48:54;;;;;;;4.97;4.55;;;;;;;;;;5096601;28;20169;-87
2021/06/06 07:51:22;;;;;;;5.32;4.90;;;;;;;;;;5096174;28;20286;-87
2021/06/06 07:53:48;;;;;;;4.70;4.40;;;;;;;;;;5096588;28;20566;-90
2021/06/06 07:56:13;;;;;;;5.05;4.65;;;;;;;;;;5096258;28;20173;-87
2021/06/06 07:58:38;;;;;;;4.90;4.40;;;;;;;;;;5096136;28;20557;-86
2021/06/06 08:01:05;;;;;;;5.15;4.65;;;;;;;;;;5096181;28;20170;-87
2021/06/06 08:03:30;;;;;;;5.25;4.85;;;;;;;;;;5096208;28;20253;-86
2021/06/06 08:05:57;;;;;;;7.13;5.15;;;;;;;;;;5096172;28;20201;-88
2021/06/06 08:08:22;;;;;;;4.90;4.50;;;;;;;;;;5096183;28;20253;-89
2021/06/06 08:10:49;;;;;;;6.93;4.80;;;;;;;;;;5078157;28;20202;-91
2021/06/06 08:13:14;;;;;;;5.50;4.68;;;;;;;;;;5096502;28;20163;-89
2021/06/06 08:15:40;;;;;;;4.55;4.15;;;;;;;;;;5095809;28;20259;-88
2021/06/06 08:18:07;;;;;;;5.00;4.15;;;;;;;;;;5096034;28;20182;-92
2021/06/06 08:20:38;;;;;;;5.90;5.10;;;;;;;;;;5096055;28;20202;-90
2021/06/06 08:23:05;;;;;;;6.20;5.40;;;;;;;;;;5094782;28;20162;-89
2021/06/06 08:25:30;;;;;;;5.47;5.00;;;;;;;;;;5095912;28;20182;-89
2021/06/06 08:27:55;;;;;;;5.30;4.82;;;;;;;;;;5100659;28;20188;-91
2021/06/06 08:30:26;;;;;;;5.20;4.80;;;;;;;;;;5083539;28;20179;-89
2021/06/06 08:32:51;;;;;;;5.60;5.10;;;;;;;;;;5091221;28;20159;-89
2021/06/06 08:35:17;;;;;;;6.32;5.60;;;;;;;;;;5093107;28;20251;-88
2021/06/06 08:37:43;;;;;;;5.82;5.32;;;;;;;;;;5093336;28;20166;-89
2021/06/06 08:40:09;;;;;;;5.32;4.93;;;;;;;;;;5094072;28;20261;-89
2021/06/06 08:42:36;;;;;;;5.63;5.00;;;;;;;;;;5092705;28;20596;-90
2021/06/06 08:45:07;;;;;;;5.75;5.10;;;;;;;;;;5093514;28;20213;-89
2021/06/06 08:47:33;;;;;;;6.00;5.38;;;;;;;;;;5093978;28;20170;-89
2021/06/06 08:50:00;;;;;;;6.82;5.60;;;;;;;;;;5093885;28;20197;-88
2021/06/06 08:53:01;;;;;;;6.55;5.78;;;;;;;;;;5076356;28;20166;-90
2021/06/06 08:55:29;;;;;;;6.13;5.55;;;;;;;;;;5017940;28;20211;-90
2021/06/06 08:58:14;;;;;;;5.75;5.25;;;;;;;;;;5086128;28;20178;-87
2021/06/06 09:00:41;;;;;;;5.80;5.28;;;;;;;;;;5065734;28;20191;-87
2021/06/06 09:03:27;;;;;;;6.75;5.30;;;;;;;;;;5094956;28;20182;-88
2021/06/06 09:06:16;;;;;;;6.30;5.57;;;;;;;;;;5078537;28;20255;-88
2021/06/06 09:08:41;;;;;;;6.80;5.60;;;;;;;;;;5080411;28;20215;-89
2021/06/06 09:11:10;;;;;;;5.93;5.30;;;;;;;;;;5084380;28;20206;-88
2021/06/06 09:13:35;;;;;;;5.50;5.10;;;;;;;;;;5094303;28;20158;-89
2021/06/06 09:16:23;;;;;;;5.70;5.20;;;;;;;;;;5094285;28;20340;-87
2021/06/06 09:18:59;;;;;;;5.65;5.22;;;;;;;;;;5075656;28;20166;-87
2021/06/06 09:21:24;;;;;;;9.25;5.57;;;;;;;;;;5094215;28;20170;-86
2021/06/06 09:23:51;;;;;;;5.80;5.30;;;;;;;;;;5094432;28;20178;-86
2021/06/06 09:26:17;;;;;;;8.80;5.88;;;;;;;;;;5094135;28;20181;-86
2021/06/06 09:28:43;;;;;;;5.57;5.07;;;;;;;;;;5093656;28;20170;-86
2021/06/06 09:31:09;;;;;;;5.35;4.85;;;;;;;;;;5094036;28;20170;-87
2021/06/06 09:33:40;;;;;;;6.43;4.78;;;;;;;;;;5094687;28;20171;-87
2021/06/06 09:36:15;;;;;;;8.07;4.95;;;;;;;;;;5092552;28;20202;-86
2021/06/06 09:38:41;;;;;;;5.72;5.07;;;;;;;;;;5093257;28;20180;-86
2021/06/06 09:41:12;;;;;;;6.47;4.93;;;;;;;;;;5089370;28;20171;-86
2021/06/06 09:43:38;;;;;;;5.30;4.90;;;;;;;;;;5082599;28;20185;-88
2021/06/06 09:46:05;;;;;;;6.05;4.40;;;;;;;;;;5094218;28;20660;-87
2021/06/06 09:48:33;;;;;;;5.60;4.35;;;;;;;;;;5092088;28;20167;-87
2021/06/06 09:51:06;;;;;;;4.68;4.35;;;;;;;;;;5084157;28;20580;-87
2021/06/06 09:53:32;;;;;;;8.13;4.55;;;;;;;;;;5084481;28;20159;-86
2021/06/06 09:56:13;;;;;;;5.68;4.65;;;;;;;;;;5083335;28;20714;-90
2021/06/06 09:58:39;;;;;;;6.13;4.38;;;;;;;;;;5058216;28;20178;-91
2021/06/06 10:01:19;;;;;;;7.20;5.00;;;;;;;;;;5077501;28;20176;-92
2021/06/06 10:03:50;;;;;;;5.45;4.88;;;;;;;;;;5084086;28;20162;-90
2021/06/06 10:06:40;;;;;;;6.55;4.60;;;;;;;;;;5084474;28;20556;-91
2021/06/06 10:09:18;;;;;;;4.78;4.35;;;;;;;;;;5069012;28;20278;-93
2021/06/06 10:11:46;;;;;;;5.10;4.18;;;;;;;;;;5073726;28;20679;-92
2021/06/06 10:14:13;;;;;;;4.88;4.47;;;;;;;;;;5084703;28;20252;-92
2021/06/06 10:16:39;;;;;;;4.60;4.18;;;;;;;;;;5075851;28;20620;-92
2021/06/06 10:19:26;;;;;;;6.15;4.22;;;;;;;;;;5085077;28;20171;-93
2021/06/06 10:21:53;;;;;;;4.70;4.40;;;;;;;;;;5077000;28;20232;-91
2021/06/06 10:24:19;;;;;;;4.10;3.70;;;;;;;;;;5093140;28;20185;-92
2021/06/06 10:26:55;;;;;;;6.85;4.60;;;;;;;;;;5083984;28;20171;-91
2021/06/06 10:29:39;;;;;;;7.60;4.18;;;;;;;;;;5077746;28;20587;-92
2021/06/06 10:32:12;;;;;;;6.03;4.30;;;;;;;;;;5078752;28;20178;-91
2021/06/06 10:34:55;;;;;;;7.45;4.30;;;;;;;;;;5082455;28;20188;-88
2021/06/06 10:37:21;;;;;;;4.60;4.20;;;;;;;;;;5093665;28;20178;-86
2021/06/06 10:40:13;;;;;;;6.72;4.25;;;;;;;;;;5093667;28;20250;-87
2021/06/06 10:42:50;;;;;;;4.72;4.20;;;;;;;;;;5068931;28;20276;-87
2021/06/06 10:45:19;;;;;;;6.35;4.30;;;;;;;;;;5095274;28;20195;-89
2021/06/06 10:47:51;;;;;;;4.70;4.30;;;;;;;;;;5097744;28;20262;-89
2021/06/06 10:50:37;;;;;;;4.40;4.00;;;;;;;;;;5095163;28;20186;-89
2021/06/06 10:53:17;;;;;;;4.80;4.20;;;;;;;;;;5097597;28;20281;-88
2021/06/06 10:55:46;;;;;;;5.80;4.00;;;;;;;;;;5097850;28;20190;-86
2021/06/06 10:58:14;;;;;;;4.47;4.13;;;;;;;;;;5097634;28;20620;-88
2021/06/06 11:00:41;;;;;;;7.20;4.40;;;;;;;;;;5101456;28;20196;-87
2021/06/06 11:03:12;;;;;;;4.45;4.05;;;;;;;;;;5086484;28;20167;-88
2021/06/06 11:05:37;;;;;;;5.47;4.30;;;;;;;;;;5084509;28;20249;-87
2021/06/06 11:08:03;;;;;;;5.20;4.18;;;;;;;;;;5084679;28;20203;-87
2021/06/06 11:10:31;;;;;;;4.40;3.90;;;;;;;;;;5078622;28;20164;-88
2021/06/06 11:12:57;;;;;;;4.88;4.05;;;;;;;;;;5077333;28;20167;-88
2021/06/06 11:15:36;;;;;;;3.90;3.65;;;;;;;;;;5076978;28;20667;-89
2021/06/06 11:18:16;;;;;;;4.72;3.97;;;;;;;;;;5077055;28;20175;-88
2021/06/06 11:20:50;;;;;;;4.88;4.22;;;;;;;;;;5075488;28;20185;-87
2021/06/06 11:23:18;;;;;;;3.90;3.60;;;;;;;;;;5095418;28;20177;-87
2021/06/06 11:25:46;;;;;;;5.72;3.92;;;;;;;;;;5097226;28;20175;-88
2021/06/06 11:28:30;;;;;;;3.80;3.60;;;;;;;;;;5096717;28;20203;-88
2021/06/06 11:30:56;;;;;;;7.88;3.80;;;;;;;;;;5096920;28;20167;-87
2021/06/06 11:33:32;;;;;;;4.30;3.88;;;;;;;;;;5092834;28;20174;-88
2021/06/06 11:35:59;;;;;;;6.43;3.67;;;;;;;;;;5096618;28;20194;-88
2021/06/06 11:38:27;;;;;;;4.25;3.90;;;;;;;;;;5096286;28;20174;-88
2021/06/06 11:41:12;;;;;;;5.47;3.92;;;;;;;;;;5097338;28;20176;-86
2021/06/06 11:43:43;;;;;;;4.30;3.90;;;;;;;;;;5096804;28;20212;-88
2021/06/06 11:46:18;;;;;;;4.30;4.00;;;;;;;;;;5078682;28;20178;-86
2021/06/06 11:48:56;;;;;;;4.10;3.80;;;;;;;;;;5096634;28;20680;-87
2021/06/06 11:51:41;;;;;;;6.10;4.13;;;;;;;;;;5094858;28;20750;-88
2021/06/06 11:54:17;;;;;;;4.68;4.25;;;;;;;;;;5096358;28;20190;-87
2021/06/06 11:56:44;;;;;;;4.25;3.95;;;;;;;;;;5095144;28;20182;-87
2021/06/06 11:59:28;;;;;;;4.18;3.70;;;;;;;;;;5096308;28;20167;-85
2021/06/06 12:01:54;;;;;;;6.47;3.78;;;;;;;;;;5096448;28;20174;-85
2021/06/06 12:04:39;;;;;;;4.50;4.10;;;;;;;;;;5094313;28;20224;-86
2021/06/06 12:07:10;;;;;;;4.60;4.18;;;;;;;;;;5092958;28;20201;-87
2021/06/06 12:09:37;;;;;;;5.60;5.00;;;;;;;;;;5094424;28;20163;-85
2021/06/06 12:12:07;;;;;;;6.13;4.35;;;;;;;;;;5095898;28;20171;-87
2021/06/06 12:14:33;;;;;;;5.20;4.72;;;;;;;;;;5094099;28;20217;-87
2021/06/06 12:17:02;;;;;;;5.53;4.15;;;;;;;;;;5096178;28;20269;-87
2021/06/06 12:19:45;;;;;;;4.53;4.10;;;;;;;;;;5095932;28;20173;-88
2021/06/06 12:22:12;;;;;;;4.80;3.97;;;;;;;;;;5096232;28;20275;-89
2021/06/06 12:24:38;;;;;;;4.50;4.13;;;;;;;;;;5093445;28;20210;-89
2021/06/06 12:27:22;;;;;;;4.80;4.25;;;;;;;;;;5094766;28;20191;-88
2021/06/06 12:29:52;;;;;;;6.00;4.80;;;;;;;;;;5094469;28;20210;-91
2021/06/06 12:32:22;;;;;;;6.88;6.28;;;;;;;;;;5094947;28;20194;-90
2021/06/06 12:34:49;;;;;;;5.43;4.97;;;;;;;;;;5094388;28;20213;-88
2021/06/06 12:37:25;;;;;;;5.45;3.70;;;;;;;;;;5094290;28;20179;-88
2021/06/06 12:39:52;;;;;;;4.38;4.00;;;;;;;;;;5093152;28;20174;-89
2021/06/06 12:42:20;;;;;;;4.55;4.15;;;;;;;;;;5094115;28;20621;-91
2021/06/06 12:44:48;;;;;;;4.35;3.95;;;;;;;;;;5093719;28;20214;-92
2021/06/06 12:47:25;;;;;;;6.13;4.80;;;;;;;;;;5094252;28;20703;-91
2021/06/06 12:49:50;;;;;;;4.88;4.47;;;;;;;;;;5095386;28;20170;-89
2021/06/06 12:52:27;;;;;;;5.28;4.18;;;;;;;;;;5094801;28;20222;-88
2021/06/06 12:54:53;;;;;;;5.10;4.20;;;;;;;;;;5094747;28;20236;-89
2021/06/06 12:57:20;;;;;;;4.65;4.10;;;;;;;;;;5077266;28;20178;-88
2021/06/06 12:59:46;;;;;;;4.55;4.13;;;;;;;;;;5095288;28;20609;-92
2021/06/06 13:02:17;;;;;;;4.53;4.15;;;;;;;;;;5094903;28;20179;-89
2021/06/06 13:04:47;;;;;;;4.82;3.90;;;;;;;;;;5093724;28;20174;-88
2021/06/06 13:07:23;;;;;;;4.07;3.78;;;;;;;;;;5081192;28;20625;-90
2021/06/06 13:09:51;;;;;;;4.80;4.13;;;;;;;;;;5091927;28;20170;-91
2021/06/06 13:12:37;;;;;;;4.47;4.07;;;;;;;;;;5076778;28;20193;-90
2021/06/06 13:15:05;;;;;;;4.28;3.97;;;;;;;;;;5095234;28;20264;-91
2021/06/06 13:17:34;;;;;;;4.60;4.20;;;;;;;;;;5076389;28;20212;-92
2021/06/06 13:20:23;;;;;;;4.20;3.85;;;;;;;;;;5076793;28;20193;-88
2021/06/06 13:23:14;;;;;;;6.72;4.03;;;;;;;;;;5080523;28;20183;-88
2021/06/06 13:25:40;;;;;;;4.55;4.15;;;;;;;;;;5035423;28;20187;-90
2021/06/06 13:28:12;;;;;;;4.57;4.18;;;;;;;;;;5092835;28;20244;-91
2021/06/06 13:30:40;;;;;;;4.93;3.83;;;;;;;;;;5094052;28;20205;-91
2021/06/06 13:33:08;;;;;;;4.57;4.18;;;;;;;;;;5093806;28;20175;-91
2021/06/06 13:35:34;;;;;;;6.55;3.97;;;;;;;;;;5094896;28;20170;-90
2021/06/06 13:37:59;;;;;;;4.78;4.25;;;;;;;;;;5094836;28;20185;-90
2021/06/06 13:40:28;;;;;;;4.22;3.92;;;;;;;;;;5092774;28;20167;-91
2021/06/06 13:42:53;;;;;;;5.93;4.50;;;;;;;;;;5094636;28;20528;-91
2021/06/06 13:45:20;;;;;;;4.75;4.03;;;;;;;;;;5093277;28;20198;-90
2021/06/06 13:47:46;;;;;;;4.55;3.90;;;;;;;;;;5093390;28;20186;-91
2021/06/06 13:50:13;;;;;;;4.05;3.70;;;;;;;;;;5093969;28;20222;-91
2021/06/06 13:52:39;;;;;;;4.30;4.00;;;;;;;;;;5075865;28;20230;-92
2021/06/06 13:55:13;;;;;;;4.20;3.90;;;;;;;;;;5093202;28;20183;-92
2021/06/06 13:57:38;;;;;;;4.03;3.65;;;;;;;;;;5094996;28;20154;-91
2021/06/06 14:00:06;;;;;;;4.38;4.00;;;;;;;;;;5093475;28;20174;-90
2021/06/06 14:02:31;;;;;;;4.40;3.97;;;;;;;;;;5094654;28;20162;-90
2021/06/06 14:04:56;;;;;;;4.88;4.32;;;;;;;;;;5094056;28;20660;-90
2021/06/06 14:07:22;;;;;;;4.30;3.90;;;;;;;;;;5094222;28;20171;-90
2021/06/06 14:09:47;;;;;;;4.70;4.05;;;;;;;;;;5094344;28;20570;-90
2021/06/06 14:12:14;;;;;;;4.20;3.80;;;;;;;;;;5094632;28;20170;-90
2021/06/06 14:14:41;;;;;;;5.47;4.07;;;;;;;;;;5094178;28;20174;-91
2021/06/06 14:17:07;;;;;;;4.07;3.67;;;;;;;;;;5095010;28;20167;-90
2021/06/06 14:19:33;;;;;;;6.82;4.13;;;;;;;;;;5093516;28;20174;-90
2021/06/06 14:21:59;;;;;;;5.00;4.30;;;;;;;;;;5094353;28;20175;-90
2021/06/06 14:24:24;;;;;;;5.32;4.03;;;;;;;;;;5094233;28;20324;-92
2021/06/06 14:26:51;;;;;;;4.95;4.25;;;;;;;;;;5093988;28;20648;-90
2021/06/06 14:29:16;;;;;;;4.55;4.10;;;;;;;;;;5089762;28;20185;-89
2021/06/06 14:31:42;;;;;;;4.80;4.40;;;;;;;;;;5094461;28;20261;-89
2021/06/06 14:34:11;;;;;;;5.32;4.82;;;;;;;;;;5075975;28;20628;-89
2021/06/06 14:36:38;;;;;;;5.38;4.85;;;;;;;;;;5094369;28;20219;-90
2021/06/06 14:39:05;;;;;;;5.40;4.25;;;;;;;;;;5094108;28;20257;-89
2021/06/06 14:41:31;;;;;;;4.82;4.43;;;;;;;;;;5094374;28;20199;-89
2021/06/06 14:43:57;;;;;;;7.45;4.70;;;;;;;;;;5093617;28;20167;-89
2021/06/06 14:46:22;;;;;;;5.22;4.45;;;;;;;;;;5093855;28;20171;-89